Time;durP1;ratioP1;P1;durP2;ratioP2;P2;SDS_P1;SDS_P2;PMS_P1;PMS_P2;Temp;Humidity;BMP_temperature;BMP_pressure;BME280_temperature;BME280_humidity;BME280_pressure;Samples;Min_cycle;Max_cycle;Signal;HPM_P1;HPM_P2
2021/01/04 00:01:06;;;;;;;9.50;8.60;;;6.90;51.80;;;;;;5063886;28;20223;-65
2021/01/04 00:04:08;;;;;;;8.20;7.40;;;6.80;51.90;;;;;;5062724;28;20206;-65
2021/01/04 00:07:02;;;;;;;9.10;8.20;;;6.80;51.90;;;;;;5063738;28;20220;-65
2021/01/04 00:09:49;;;;;;;9.10;8.17;;;6.80;52.00;;;;;;5066764;28;20204;-65
2021/01/04 00:12:22;;;;;;;10.10;9.10;;;6.80;52.00;;;;;;5063662;28;20209;-65
2021/01/04 00:15:05;;;;;;;10.33;9.33;;;6.80;51.90;;;;;;5065449;28;20767;-65
2021/01/04 00:18:02;;;;;;;8.37;7.57;;;6.80;51.90;;;;;;5064055;28;20743;-64
2021/01/04 00:20:36;;;;;;;7.70;7.00;;;6.80;51.90;;;;;;5065655;28;20228;-65
2021/01/04 00:23:15;;;;;;;8.67;7.87;;;6.70;51.90;;;;;;5063906;28;20208;-65
2021/01/04 00:25:50;;;;;;;8.77;7.87;;;6.70;52.00;;;;;;5066373;28;20274;-66
2021/01/04 00:28:21;;;;;;;8.40;7.60;;;6.70;52.00;;;;;;5066493;28;20238;-66
2021/01/04 00:30:57;;;;;;;7.93;7.23;;;6.70;52.00;;;;;;5066957;28;20776;-66
2021/01/04 00:33:30;;;;;;;9.40;8.40;;;6.70;52.10;;;;;;5066122;28;20225;-66
2021/01/04 00:36:01;;;;;;;8.73;7.83;;;6.70;52.00;;;;;;5062281;28;20224;-66
2021/01/04 00:39:05;;;;;;;7.70;7.00;;;6.70;51.90;;;;;;5065727;28;20259;-66
2021/01/04 00:41:49;;;;;;;7.80;7.03;;;6.70;51.90;;;;;;5063884;28;20204;-66
2021/01/04 00:44:26;;;;;;;7.83;7.03;;;6.70;52.00;;;;;;5065554;28;20228;-66
2021/01/04 00:47:02;;;;;;;8.20;7.40;;;6.70;52.00;;;;;;5066375;28;20219;-65
2021/01/04 00:49:34;;;;;;;7.83;7.03;;;6.70;52.00;;;;;;5066484;28;20594;-65
2021/01/04 00:52:13;;;;;;;8.47;7.67;;;6.70;52.00;;;;;;5064538;28;20211;-65
2021/01/04 00:54:58;;;;;;;8.87;7.97;;;6.70;52.10;;;;;;5062934;28;20304;-66
2021/01/04 00:58:07;;;;;;;7.60;6.90;;;6.70;52.10;;;;;;5066556;28;21756;-66
2021/01/04 01:00:41;;;;;;;7.33;6.63;;;6.70;52.00;;;;;;5064845;28;20208;-66
2021/01/04 01:03:32;;;;;;;8.23;7.43;;;6.70;52.00;;;;;;5063655;28;20724;-67
2021/01/04 01:06:12;;;;;;;7.93;7.13;;;6.70;52.00;;;;;;5064186;28;20263;-66
2021/01/04 01:08:40;;;;;;;8.90;8.00;;;6.70;52.00;;;;;;5064806;28;20209;-66
2021/01/04 01:11:11;;;;;;;9.20;7.90;;;6.70;52.10;;;;;;5063108;28;20291;-66
2021/01/04 01:14:01;;;;;;;8.40;7.60;;;6.80;52.20;;;;;;5065342;28;20209;-65
2021/01/04 01:17:08;;;;;;;8.13;7.37;;;6.80;52.20;;;;;;5064676;28;20290;-66
2021/01/04 01:19:47;;;;;;;8.70;7.90;;;6.80;52.20;;;;;;5064729;28;20277;-66
2021/01/04 01:22:21;;;;;;;8.57;7.77;;;6.80;52.20;;;;;;5064779;28;20212;-66
2021/01/04 01:24:48;;;;;;;8.87;8.07;;;6.80;52.20;;;;;;5065863;28;20340;-66
2021/01/04 01:27:34;;;;;;;8.97;8.17;;;6.90;52.30;;;;;;5064886;28;20209;-66
2021/01/04 01:30:36;;;;;;;8.43;7.63;;;6.80;52.10;;;;;;5064622;28;20220;-65
2021/01/04 01:33:31;;;;;;;8.27;7.47;;;6.90;52.10;;;;;;5033589;28;20209;-66
2021/01/04 01:36:11;;;;;;;7.97;7.27;;;6.90;52.10;;;;;;5062912;28;20221;-66
2021/01/04 01:39:21;;;;;;;8.37;7.57;;;7.00;52.20;;;;;;5064212;28;20208;-66
2021/01/04 01:42:44;;;;;;;7.67;6.97;;;7.00;52.10;;;;;;4998747;28;20220;-66
2021/01/04 01:45:19;;;;;;;7.97;7.27;;;7.00;52.00;;;;;;5056646;28;20213;-66
2021/01/04 01:48:02;;;;;;;8.83;7.93;;;7.00;52.00;;;;;;5061109;28;20209;-66
2021/01/04 01:50:41;;;;;;;8.87;8.07;;;7.00;52.00;;;;;;5061663;28;20204;-66
2021/01/04 01:53:23;;;;;;;8.27;7.47;;;7.00;51.90;;;;;;5062437;28;20209;-66
2021/01/04 01:56:11;;;;;;;9.17;8.27;;;7.00;52.00;;;;;;5063503;28;20733;-66
2021/01/04 01:59:21;;;;;;;8.03;7.33;;;7.00;52.00;;;;;;5064874;28;20279;-66
2021/01/04 02:02:03;;;;;;;7.57;6.87;;;7.00;51.90;;;;;;5062148;28;20204;-65
2021/01/04 02:04:47;;;;;;;8.87;8.00;;;7.00;52.00;;;;;;5062079;28;20224;-66
2021/01/04 02:07:24;;;;;;;8.27;7.57;;;7.00;52.00;;;;;;5064572;28;20311;-65
2021/01/04 02:09:56;;;;;;;8.33;7.53;;;7.00;52.00;;;;;;5064842;28;20681;-66
2021/01/04 02:12:38;;;;;;;8.63;7.83;;;7.00;52.00;;;;;;5063996;28;20209;-66
2021/01/04 02:15:12;;;;;;;7.87;7.17;;;7.00;51.90;;;;;;5062715;28;20236;-65
2021/01/04 02:18:04;;;;;;;8.93;8.03;;;7.00;51.90;;;;;;5063602;28;20204;-66
2021/01/04 02:21:27;;;;;;;8.83;7.93;;;7.00;51.70;;;;;;5065220;28;20216;-66
2021/01/04 02:24:10;;;;;;;9.30;8.40;;;7.00;51.70;;;;;;5063944;28;20228;-66
2021/01/04 02:26:39;;;;;;;9.37;8.37;;;7.00;51.60;;;;;;5064601;28;20225;-66
2021/01/04 02:29:11;;;;;;;9.70;8.80;;;7.00;51.60;;;;;;5063286;28;20204;-67
2021/01/04 02:31:40;;;;;;;9.70;8.80;;;7.00;51.60;;;;;;5062253;28;20229;-66
2021/01/04 02:34:13;;;;;;;8.93;8.03;;;6.90;51.60;;;;;;5060913;28;20301;-66
2021/01/04 02:36:44;;;;;;;9.17;8.27;;;6.90;51.60;;;;;;5067622;28;20673;-66
2021/01/04 02:39:20;;;;;;;8.90;8.00;;;6.90;51.70;;;;;;5065993;28;20642;-66
2021/01/04 02:42:05;;;;;;;8.23;7.43;;;6.80;51.70;;;;;;5064336;28;20201;-66
2021/01/04 02:44:33;;;;;;;9.07;8.17;;;6.80;51.50;;;;;;5064390;28;20213;-66
2021/01/04 02:47:27;;;;;;;9.20;8.30;;;6.80;51.70;;;;;;5061718;28;20201;-66
2021/01/04 02:50:06;;;;;;;9.60;8.70;;;6.80;51.70;;;;;;5061026;28;20201;-66
2021/01/04 02:53:05;;;;;;;10.37;9.27;;;6.80;51.70;;;;;;5064053;28;20274;-66
2021/01/04 02:55:50;;;;;;;9.23;8.33;;;6.70;51.60;;;;;;5062745;28;20233;-66
2021/01/04 02:58:29;;;;;;;9.83;8.93;;;6.70;51.60;;;;;;5062880;28;20213;-66
2021/01/04 03:01:02;;;;;;;8.93;8.13;;;6.60;51.70;;;;;;5061745;28;20266;-66
2021/01/04 03:03:31;;;;;;;9.90;9.00;;;6.60;51.80;;;;;;5062564;28;20206;-65
2021/01/04 03:06:00;;;;;;;9.03;8.17;;;6.60;51.80;;;;;;5061833;28;20224;-66
2021/01/04 03:08:26;;;;;;;9.93;9.03;;;6.60;51.70;;;;;;5064222;28;20205;-65
2021/01/04 03:10:58;;;;;;;9.47;8.47;;;6.60;51.70;;;;;;5062218;28;20274;-66
2021/01/04 03:13:46;;;;;;;9.30;8.40;;;6.60;51.80;;;;;;5066689;28;20763;-65
2021/01/04 03:16:21;;;;;;;9.90;9.00;;;6.50;51.70;;;;;;5067505;28;20204;-65
2021/01/04 03:18:54;;;;;;;8.67;7.90;;;6.50;51.70;;;;;;5066872;28;20223;-66
2021/01/04 03:21:24;;;;;;;9.13;8.27;;;6.50;51.80;;;;;;5065699;28;20232;-66
2021/01/04 03:23:52;;;;;;;9.30;8.47;;;6.40;51.80;;;;;;5065476;28;20201;-66
2021/01/04 03:26:22;;;;;;;9.00;8.20;;;6.40;51.90;;;;;;5066897;28;20682;-66
2021/01/04 03:28:49;;;;;;;8.73;7.73;;;6.40;51.90;;;;;;5066980;28;20208;-66
2021/01/04 03:31:16;;;;;;;9.03;8.23;;;6.40;52.00;;;;;;5067135;28;20201;-65
2021/01/04 03:33:42;;;;;;;9.27;8.37;;;6.30;52.00;;;;;;5068980;28;20211;-66
2021/01/04 03:36:09;;;;;;;9.63;8.70;;;6.30;52.00;;;;;;5066142;28;20217;-65
2021/01/04 03:38:36;;;;;;;9.27;8.47;;;6.30;52.00;;;;;;5064311;28;20260;-65
2021/01/04 03:41:05;;;;;;;9.77;8.77;;;6.30;52.10;;;;;;5065790;28;20208;-65
2021/01/04 03:43:33;;;;;;;9.37;8.33;;;6.30;52.20;;;;;;5065834;28;20294;-65
2021/01/04 03:46:00;;;;;;;9.47;8.57;;;6.30;52.20;;;;;;5065251;28;20244;-65
2021/01/04 03:48:27;;;;;;;9.90;8.77;;;6.30;52.20;;;;;;5063484;28;20223;-65
2021/01/04 03:50:54;;;;;;;10.20;9.30;;;6.40;52.20;;;;;;5063750;28;20274;-65
2021/01/04 03:53:21;;;;;;;9.63;8.83;;;6.40;52.10;;;;;;5067189;28;20208;-65
2021/01/04 03:55:48;;;;;;;10.37;9.47;;;6.40;52.10;;;;;;5067611;28;20580;-65
2021/01/04 03:58:14;;;;;;;8.97;8.17;;;6.30;51.90;;;;;;5066482;28;20209;-66
2021/01/04 04:00:42;;;;;;;9.73;8.83;;;6.30;52.00;;;;;;5067819;28;20558;-65
2021/01/04 04:03:09;;;;;;;9.90;8.90;;;6.30;51.90;;;;;;5065802;28;20207;-65
2021/01/04 04:05:35;;;;;;;9.33;8.40;;;6.30;52.00;;;;;;5066350;28;20244;-66
2021/01/04 04:08:04;;;;;;;9.27;8.37;;;6.30;51.90;;;;;;5066911;28;20219;-66
2021/01/04 04:10:31;;;;;;;10.57;9.57;;;6.20;51.90;;;;;;5064883;28;20209;-65
2021/01/04 04:12:58;;;;;;;9.10;8.30;;;6.20;51.90;;;;;;5064693;28;20204;-66
2021/01/04 04:15:26;;;;;;;8.07;7.37;;;6.20;51.90;;;;;;5067193;28;20232;-66
2021/01/04 04:17:53;;;;;;;8.17;7.47;;;6.20;52.00;;;;;;5063393;28;20213;-65
2021/01/04 04:20:23;;;;;;;7.70;7.00;;;6.10;52.00;;;;;;5066816;28;20224;-66
2021/01/04 04:22:51;;;;;;;8.33;7.63;;;6.10;52.10;;;;;;5062018;28;20205;-65
2021/01/04 04:25:20;;;;;;;8.87;7.97;;;6.10;52.30;;;;;;5065997;28;20785;-65
2021/01/04 04:27:47;;;;;;;8.40;7.60;;;6.10;52.30;;;;;;5065744;28;20592;-65
2021/01/04 04:30:21;;;;;;;8.37;7.57;;;6.10;52.30;;;;;;5065881;28;20244;-65
2021/01/04 04:32:48;;;;;;;9.30;8.50;;;6.10;52.30;;;;;;5066426;28;20201;-65
2021/01/04 04:35:15;;;;;;;10.80;9.80;;;6.10;52.30;;;;;;5065478;28;20224;-65
2021/01/04 04:37:43;;;;;;;10.10;9.10;;;6.20;52.20;;;;;;5067127;28;20205;-64
2021/01/04 04:40:15;;;;;;;9.73;8.93;;;6.10;52.10;;;;;;5064891;28;20197;-64
2021/01/04 04:42:42;;;;;;;9.50;8.70;;;6.10;52.10;;;;;;5065706;28;20304;-65
2021/01/04 04:45:16;;;;;;;8.40;7.60;;;6.10;52.10;;;;;;5065059;28;20233;-65
2021/01/04 04:48:38;;;;;;;9.47;8.47;;;6.10;52.10;;;;;;5063806;28;20203;-64
2021/01/04 04:51:30;;;;;;;8.83;8.03;;;6.00;52.10;;;;;;5065422;28;20205;-66
2021/01/04 04:54:16;;;;;;;9.83;8.83;;;6.00;52.10;;;;;;5065616;28;20216;-65
2021/01/04 04:57:10;;;;;;;10.10;9.13;;;6.00;52.00;;;;;;5064698;28;20204;-64
2021/01/04 04:59:56;;;;;;;8.10;7.30;;;6.00;51.90;;;;;;5065269;28;20200;-64
2021/01/04 05:02:37;;;;;;;7.83;7.13;;;5.90;51.90;;;;;;5064492;28;20212;-64
2021/01/04 05:05:20;;;;;;;7.97;7.17;;;5.80;52.10;;;;;;5066320;28;20833;-66
2021/01/04 05:07:56;;;;;;;8.40;7.60;;;5.80;52.30;;;;;;5062860;28;20773;-66
2021/01/04 05:10:28;;;;;;;8.70;7.80;;;5.80;52.40;;;;;;5064081;28;20267;-65
2021/01/04 05:13:10;;;;;;;8.50;7.70;;;5.80;52.40;;;;;;5063886;28;20212;-66
2021/01/04 05:15:59;;;;;;;9.20;8.40;;;5.80;52.50;;;;;;5062509;28;20232;-67
2021/01/04 05:19:04;;;;;;;10.00;9.00;;;5.80;52.50;;;;;;5063250;28;20216;-66
2021/01/04 05:22:21;;;;;;;8.27;7.47;;;5.90;52.40;;;;;;5064805;28;20273;-66
2021/01/04 05:25:27;;;;;;;7.60;6.93;;;5.90;52.50;;;;;;5047210;28;20767;-65
2021/01/04 05:28:49;;;;;;;7.43;6.73;;;5.90;52.40;;;;;;5063343;28;20204;-66
2021/01/04 05:31:45;;;;;;;7.33;6.63;;;5.90;53.00;;;;;;5063897;28;20278;-65
2021/01/04 05:34:22;;;;;;;8.53;7.73;;;5.90;52.40;;;;;;5061404;28;20232;-65
2021/01/04 05:37:28;;;;;;;8.27;7.47;;;5.90;52.40;;;;;;5063103;28;20622;-65
2021/01/04 05:40:38;;;;;;;8.87;8.07;;;5.90;52.40;;;;;;5064111;28;20220;-65
2021/01/04 05:43:28;;;;;;;7.97;7.27;;;5.90;52.50;;;;;;5039445;28;20208;-66
2021/01/04 05:46:04;;;;;;;8.47;7.67;;;6.00;52.60;;;;;;5063166;28;20229;-66
2021/01/04 05:48:49;;;;;;;9.73;8.83;;;6.00;52.60;;;;;;5063577;28;20219;-65
2021/01/04 05:51:24;;;;;;;10.30;9.30;;;6.00;52.50;;;;;;5063649;28;20201;-65
2021/01/04 05:53:51;;;;;;;11.37;10.30;;;6.00;52.50;;;;;;5062715;28;20219;-66
2021/01/04 05:56:24;;;;;;;10.00;9.10;;;6.00;52.30;;;;;;5065535;28;20712;-65
2021/01/04 05:58:51;;;;;;;10.90;9.77;;;6.00;52.20;;;;;;5063413;28;20201;-65
2021/01/04 06:01:25;;;;;;;10.83;9.73;;;6.00;52.20;;;;;;5061809;28;20213;-64
2021/01/04 06:03:59;;;;;;;12.20;11.00;;;6.00;52.10;;;;;;5062225;28;20262;-65
2021/01/04 06:06:33;;;;;;;11.03;9.63;;;6.00;52.10;;;;;;5061157;28;20215;-64
2021/01/04 06:09:09;;;;;;;9.90;8.90;;;5.90;52.00;;;;;;5064845;28;20239;-65
2021/01/04 06:11:48;;;;;;;9.87;8.93;;;5.90;52.10;;;;;;5060910;28;20196;-65
2021/01/04 06:14:15;;;;;;;10.50;9.50;;;5.90;52.20;;;;;;5065372;28;20740;-65
2021/01/04 06:16:45;;;;;;;9.73;8.83;;;5.80;52.20;;;;;;5063694;28;20684;-64
2021/01/04 06:19:17;;;;;;;8.77;7.97;;;5.80;52.30;;;;;;5063703;28;20680;-65
2021/01/04 06:21:51;;;;;;;8.63;7.83;;;5.80;52.40;;;;;;5062732;28;20208;-65
2021/01/04 06:24:29;;;;;;;9.17;8.37;;;5.70;52.50;;;;;;5058528;28;20225;-64
2021/01/04 06:27:00;;;;;;;10.43;9.43;;;5.80;52.70;;;;;;5062524;28;20713;-65
2021/01/04 06:29:35;;;;;;;10.93;9.83;;;5.80;52.70;;;;;;5062991;28;20688;-66
2021/01/04 06:32:05;;;;;;;11.17;10.07;;;5.80;52.70;;;;;;5061380;28;20208;-67
2021/01/04 06:34:36;;;;;;;10.83;9.80;;;5.80;52.60;;;;;;5062306;28;20705;-67
2021/01/04 06:37:12;;;;;;;11.40;10.37;;;5.80;52.60;;;;;;5065787;28;20197;-66
2021/01/04 06:39:40;;;;;;;12.90;11.60;;;5.90;52.60;;;;;;5065320;28;20197;-65
2021/01/04 06:42:16;;;;;;;10.87;9.77;;;5.90;52.50;;;;;;5062433;28;20737;-65
2021/01/04 06:45:11;;;;;;;11.00;9.90;;;5.90;52.50;;;;;;5065504;28;20224;-64
2021/01/04 06:47:58;;;;;;;10.73;9.63;;;5.90;52.60;;;;;;5067246;28;20205;-65
2021/01/04 06:50:36;;;;;;;12.00;10.80;;;5.90;52.60;;;;;;5068871;28;20205;-66
2021/01/04 06:53:49;;;;;;;13.10;11.80;;;5.90;52.60;;;;;;5066060;28;20208;-66
2021/01/04 06:56:52;;;;;;;11.30;10.20;;;5.90;52.50;;;;;;5065929;28;20262;-67
2021/01/04 07:00:16;;;;;;;11.07;9.97;;;6.00;52.40;;;;;;5067346;28;20201;-66
2021/01/04 07:03:33;;;;;;;12.27;10.97;;;5.90;52.40;;;;;;5066774;28;20205;-67
2021/01/04 07:06:40;;;;;;;11.47;10.37;;;5.90;52.30;;;;;;5063247;28;20307;-65
2021/01/04 07:09:50;;;;;;;13.57;12.20;;;5.90;52.40;;;;;;5067939;28;20216;-67
2021/01/04 07:12:25;;;;;;;14.27;12.77;;;5.90;52.40;;;;;;5068562;28;20917;-65
2021/01/04 07:15:15;;;;;;;13.87;12.47;;;5.90;52.30;;;;;;5067774;28;20232;-66
2021/01/04 07:18:17;;;;;;;14.83;13.13;;;5.90;52.40;;;;;;5063584;28;20247;-67
2021/01/04 07:21:13;;;;;;;12.90;11.50;;;5.80;52.40;;;;;;5062388;28;20210;-67
2021/01/04 07:23:55;;;;;;;13.47;12.07;;;5.80;52.40;;;;;;5065652;28;20216;-66
2021/01/04 07:26:41;;;;;;;15.70;14.00;;;5.80;52.50;;;;;;5066224;28;20247;-64
2021/01/04 07:29:33;;;;;;;17.97;16.13;;;5.80;52.50;;;;;;5065780;28;20227;-67
2021/01/04 07:32:08;;;;;;;16.80;14.47;;;5.80;52.50;;;;;;5063748;28;20220;-66
2021/01/04 07:34:41;;;;;;;16.27;14.53;;;5.70;52.30;;;;;;5067667;28;20240;-68
2021/01/04 07:37:34;;;;;;;16.83;15.03;;;5.70;52.40;;;;;;5066543;28;20205;-65
2021/01/04 07:40:26;;;;;;;13.83;12.37;;;5.60;52.50;;;;;;5064822;28;20212;-65
2021/01/04 07:43:40;;;;;;;13.40;12.00;;;5.60;52.60;;;;;;5064960;28;20781;-66
2021/01/04 07:46:42;;;;;;;13.53;12.13;;;5.60;52.70;;;;;;5064704;28;20225;-62
2021/01/04 07:49:57;;;;;;;12.73;11.03;;;5.60;52.70;;;;;;5067394;28;20204;-65
2021/01/04 07:53:07;;;;;;;14.30;12.80;;;5.60;52.80;;;;;;5065205;28;20588;-61
2021/01/04 07:56:20;;;;;;;15.57;13.83;;;5.60;52.80;;;;;;5068317;28;20221;-61
2021/01/04 07:59:50;;;;;;;14.97;13.47;;;5.60;52.80;;;;;;5061623;28;20658;-62
2021/01/04 08:03:05;;;;;;;16.07;13.93;;;5.60;52.70;;;;;;5066796;28;20215;-66
2021/01/04 08:06:02;;;;;;;15.37;13.77;;;5.60;52.70;;;;;;5043902;28;20221;-61
2021/01/04 08:08:46;;;;;;;17.03;14.97;;;5.60;52.70;;;;;;5068834;28;20303;-68
2021/01/04 08:11:56;;;;;;;17.17;15.37;;;5.60;52.70;;;;;;5064544;28;20228;-68
2021/01/04 08:14:51;;;;;;;15.37;13.77;;;5.60;52.80;;;;;;5066120;28;20778;-68
2021/01/04 08:17:27;;;;;;;14.07;12.63;;;5.60;52.80;;;;;;5056932;28;20224;-67
2021/01/04 08:19:59;;;;;;;15.17;13.57;;;5.60;52.90;;;;;;5063822;28;20204;-68
2021/01/04 08:23:29;;;;;;;16.23;14.53;;;5.60;52.90;;;;;;5066070;28;20220;-68
2021/01/04 08:26:15;;;;;;;17.23;15.43;;;5.60;52.90;;;;;;5067143;28;20576;-67
2021/01/04 08:28:50;;;;;;;15.87;14.27;;;5.60;52.80;;;;;;5067431;28;20197;-68
2021/01/04 08:31:40;;;;;;;15.60;13.83;;;5.60;52.80;;;;;;5066174;28;20205;-69
2021/01/04 08:34:11;;;;;;;17.40;15.60;;;5.60;52.90;;;;;;5066734;28;20224;-66
2021/01/04 08:36:55;;;;;;;16.23;14.60;;;5.60;52.90;;;;;;5066038;28;20262;-67
2021/01/04 08:39:48;;;;;;;14.73;13.23;;;5.60;52.90;;;;;;5067519;28;20300;-68
2021/01/04 08:42:31;;;;;;;15.17;13.63;;;5.60;52.90;;;;;;5065552;28;20209;-67
2021/01/04 08:45:03;;;;;;;17.57;15.73;;;5.60;52.90;;;;;;5067583;28;20240;-68
2021/01/04 08:47:38;;;;;;;16.77;14.73;;;5.60;52.90;;;;;;5067515;28;20600;-68
2021/01/04 08:50:31;;;;;;;17.37;15.13;;;5.60;52.90;;;;;;5064787;28;20205;-69
2021/01/04 08:53:16;;;;;;;16.90;15.20;;;5.60;53.00;;;;;;5067096;28;20697;-67
2021/01/04 08:55:44;;;;;;;19.10;17.10;;;5.60;53.10;;;;;;5064593;28;20252;-68
2021/01/04 08:58:41;;;;;;;19.00;17.10;;;5.60;53.70;;;;;;5063968;28;20254;-68
2021/01/04 09:01:21;;;;;;;16.50;14.77;;;5.60;53.00;;;;;;5007848;28;20201;-68
2021/01/04 09:03:49;;;;;;;16.73;14.80;;;5.60;53.00;;;;;;5065251;28;20201;-68
2021/01/04 09:06:31;;;;;;;17.07;15.27;;;5.60;53.00;;;;;;5063731;28;20321;-68
2021/01/04 09:09:15;;;;;;;17.20;14.87;;;5.60;53.20;;;;;;5064163;28;20223;-63
2021/01/04 09:11:59;;;;;;;15.83;14.23;;;5.60;53.20;;;;;;5064238;28;20271;-64
2021/01/04 09:14:39;;;;;;;16.70;14.47;;;5.50;53.20;;;;;;5065258;28;20232;-65
2021/01/04 09:17:22;;;;;;;16.20;14.40;;;5.50;53.10;;;;;;5064554;28;22209;-65
2021/01/04 09:20:00;;;;;;;17.33;15.50;;;5.60;53.30;;;;;;5063591;28;20197;-65
2021/01/04 09:22:27;;;;;;;15.63;14.03;;;5.60;53.30;;;;;;5064109;28;20211;-64
2021/01/04 09:24:54;;;;;;;21.90;19.60;;;5.60;53.30;;;;;;5064394;28;20459;-63
2021/01/04 09:27:31;;;;;;;21.83;19.30;;;5.60;53.40;;;;;;5065347;28;20201;-64
2021/01/04 09:30:04;;;;;;;19.43;17.17;;;5.60;53.40;;;;;;5065359;28;20629;-64
2021/01/04 09:32:37;;;;;;;18.00;16.10;;;5.60;53.50;;;;;;5064059;28;20205;-65
2021/01/04 09:35:07;;;;;;;18.67;16.67;;;5.70;53.60;;;;;;5065747;28;20263;-64
2021/01/04 09:37:38;;;;;;;19.40;17.20;;;5.70;53.40;;;;;;5062371;28;20212;-67
2021/01/04 09:40:09;;;;;;;18.77;16.70;;;5.70;53.20;;;;;;5061848;28;20215;-66
2021/01/04 09:42:37;;;;;;;16.73;15.03;;;5.80;53.10;;;;;;5060821;28;20681;-65
2021/01/04 09:45:13;;;;;;;16.03;14.33;;;5.70;53.20;;;;;;5063240;28;20697;-67
2021/01/04 09:47:46;;;;;;;18.40;15.70;;;5.70;53.40;;;;;;5064273;28;20212;-68
2021/01/04 09:50:22;;;;;;;17.27;15.47;;;5.70;53.40;;;;;;5064676;28;20229;-67
2021/01/04 09:52:57;;;;;;;17.73;15.30;;;5.70;53.40;;;;;;5063955;28;20208;-66
2021/01/04 09:55:37;;;;;;;17.90;15.30;;;5.70;53.20;;;;;;5059601;28;21132;-67
2021/01/04 09:58:05;;;;;;;16.27;14.60;;;5.70;53.20;;;;;;5061107;28;20906;-67
2021/01/04 10:00:35;;;;;;;17.93;15.63;;;5.70;53.10;;;;;;5063250;28;20286;-67
2021/01/04 10:03:08;;;;;;;15.00;13.27;;;5.70;53.10;;;;;;5065516;28;20227;-66
2021/01/04 10:05:38;;;;;;;16.03;14.27;;;5.70;53.20;;;;;;5062580;28;20216;-65
2021/01/04 10:08:13;;;;;;;19.20;16.37;;;5.70;53.40;;;;;;5062766;28;20282;-66
2021/01/04 10:10:59;;;;;;;15.57;13.93;;;5.70;53.40;;;;;;5062954;28;20583;-66
2021/01/04 10:13:29;;;;;;;15.17;13.60;;;5.70;53.40;;;;;;5064218;28;20592;-65
2021/01/04 10:15:59;;;;;;;17.23;15.20;;;5.70;53.40;;;;;;5063102;28;20237;-66
2021/01/04 10:18:44;;;;;;;18.60;16.53;;;5.70;54.10;;;;;;5064829;28;20232;-66
2021/01/04 10:21:17;;;;;;;15.83;13.80;;;5.80;53.40;;;;;;5066109;28;20196;-67
2021/01/04 10:23:52;;;;;;;17.67;15.27;;;5.80;53.30;;;;;;5067375;28;20208;-67
2021/01/04 10:26:19;;;;;;;17.27;15.53;;;5.80;53.30;;;;;;5068510;28;20208;-66
2021/01/04 10:28:46;;;;;;;19.53;17.43;;;5.80;53.20;;;;;;5069335;28;20249;-67
2021/01/04 10:31:23;;;;;;;20.00;17.40;;;5.80;53.20;;;;;;5065898;28;20201;-67
2021/01/04 10:34:01;;;;;;;18.73;16.73;;;5.70;53.10;;;;;;5067016;28;20605;-67
2021/01/04 10:36:28;;;;;;;17.90;16.00;;;5.70;53.10;;;;;;5067302;28;20294;-66
2021/01/04 10:38:59;;;;;;;18.97;16.97;;;5.70;53.10;;;;;;5069025;28;20274;-66
2021/01/04 10:41:29;;;;;;;18.87;16.87;;;5.70;53.20;;;;;;5066146;28;20216;-67
2021/01/04 10:44:14;;;;;;;19.13;16.03;;;5.60;53.20;;;;;;5069235;28;20205;-65
2021/01/04 10:46:46;;;;;;;18.07;15.60;;;5.60;53.30;;;;;;5067271;28;20389;-66
2021/01/04 10:49:26;;;;;;;15.33;13.73;;;5.60;53.20;;;;;;5068776;28;20265;-66
2021/01/04 10:51:55;;;;;;;16.03;14.33;;;5.50;53.40;;;;;;5064964;28;20209;-69
2021/01/04 10:54:34;;;;;;;18.23;16.23;;;5.50;53.40;;;;;;5066720;28;20232;-67
2021/01/04 10:57:24;;;;;;;19.67;17.00;;;5.50;53.40;;;;;;5066482;28;20201;-67
2021/01/04 11:00:03;;;;;;;17.70;15.80;;;5.50;53.40;;;;;;5066485;28;20266;-67
2021/01/04 11:02:39;;;;;;;17.40;15.70;;;5.50;53.30;;;;;;5064954;28;20289;-67
2021/01/04 11:05:08;;;;;;;16.93;15.17;;;5.50;53.30;;;;;;5070333;28;20270;-67
2021/01/04 11:07:35;;;;;;;18.70;16.60;;;5.50;53.40;;;;;;5084104;28;20201;-66
2021/01/04 11:10:22;;;;;;;21.43;18.67;;;5.50;53.40;;;;;;5065121;28;20209;-67
2021/01/04 11:12:52;;;;;;;21.33;19.10;;;5.50;53.40;;;;;;5062619;28;20213;-67
2021/01/04 11:15:26;;;;;;;21.07;18.83;;;5.50;53.40;;;;;;5067081;28;20286;-67
2021/01/04 11:18:01;;;;;;;20.13;18.03;;;5.50;53.40;;;;;;5067534;28;20278;-67
2021/01/04 11:20:29;;;;;;;21.67;19.37;;;5.50;53.40;;;;;;5064392;28;20224;-67
2021/01/04 11:23:07;;;;;;;23.23;19.83;;;5.50;53.40;;;;;;5064202;28;20201;-67
2021/01/04 11:25:35;;;;;;;21.93;19.67;;;5.40;53.40;;;;;;5065396;28;20221;-66
2021/01/04 11:28:01;;;;;;;23.93;20.73;;;5.40;53.30;;;;;;5067731;28;20227;-68
2021/01/04 11:30:29;;;;;;;22.13;19.83;;;5.40;53.40;;;;;;5065184;28;20224;-67
2021/01/04 11:32:57;;;;;;;21.90;19.70;;;5.30;53.30;;;;;;5064290;28;20201;-64
2021/01/04 11:35:24;;;;;;;23.17;20.73;;;5.30;53.40;;;;;;5064091;28;20243;-61
2021/01/04 11:37:50;;;;;;;17.60;15.87;;;5.20;53.40;;;;;;5065273;28;20205;-62
2021/01/04 11:40:17;;;;;;;18.97;17.07;;;5.10;53.50;;;;;;5064822;28;20213;-61
2021/01/04 11:42:44;;;;;;;18.80;16.90;;;5.10;53.70;;;;;;5067174;28;20208;-62
2021/01/04 11:45:15;;;;;;;18.37;16.47;;;5.10;54.50;;;;;;5063921;28;20228;-62
2021/01/04 11:47:43;;;;;;;17.93;16.20;;;5.10;54.00;;;;;;5064493;28;20208;-65
2021/01/04 11:50:11;;;;;;;19.93;17.33;;;5.10;54.10;;;;;;5063241;28;20263;-66
2021/01/04 11:52:39;;;;;;;20.40;18.30;;;5.10;54.10;;;;;;5064262;28;20216;-67
2021/01/04 11:55:11;;;;;;;19.70;17.70;;;5.20;54.20;;;;;;5066718;28;20252;-66
2021/01/04 11:57:38;;;;;;;21.20;19.00;;;5.20;54.00;;;;;;5066593;28;20212;-66
2021/01/04 12:00:07;;;;;;;23.73;21.23;;;5.20;53.90;;;;;;5064375;28;20205;-66
2021/01/04 12:02:33;;;;;;;21.27;19.07;;;5.30;53.90;;;;;;5066490;28;20205;-67
2021/01/04 12:05:00;;;;;;;23.63;21.23;;;5.30;53.80;;;;;;5065682;28;20228;-63
2021/01/04 12:07:27;;;;;;;25.40;22.80;;;5.30;53.90;;;;;;5064879;28;20201;-64
2021/01/04 12:09:53;;;;;;;20.43;18.50;;;5.30;53.90;;;;;;5067080;28;20208;-64
2021/01/04 12:12:21;;;;;;;21.30;19.10;;;5.20;53.90;;;;;;5061898;28;20557;-65
2021/01/04 12:14:47;;;;;;;24.87;22.27;;;5.20;53.90;;;;;;5064822;28;20792;-66
2021/01/04 12:17:15;;;;;;;23.33;21.00;;;5.30;54.10;;;;;;5063369;28;20201;-65
2021/01/04 12:19:42;;;;;;;22.20;20.07;;;5.30;54.10;;;;;;5065301;28;20205;-65
2021/01/04 12:22:11;;;;;;;23.90;21.53;;;5.30;54.10;;;;;;5063950;28;20258;-65
2021/01/04 12:24:38;;;;;;;24.47;21.97;;;5.30;54.10;;;;;;5064688;28;20298;-65
2021/01/04 12:27:07;;;;;;;23.07;20.63;;;5.30;54.10;;;;;;5065811;28;20292;-64
2021/01/04 12:29:33;;;;;;;23.43;21.20;;;5.30;54.00;;;;;;5063209;28;20228;-67
2021/01/04 12:32:00;;;;;;;21.93;19.63;;;5.30;54.00;;;;;;5065028;28;20201;-67
2021/01/04 12:34:27;;;;;;;22.83;20.53;;;5.30;54.00;;;;;;5062889;28;20714;-67
2021/01/04 12:36:53;;;;;;;23.73;21.23;;;5.30;54.00;;;;;;5064209;28;20223;-66
2021/01/04 12:39:21;;;;;;;20.50;18.43;;;5.30;54.00;;;;;;5064296;28;20204;-64
2021/01/04 12:41:47;;;;;;;20.67;18.47;;;5.30;54.10;;;;;;5065505;28;20201;-66
2021/01/04 12:44:15;;;;;;;23.23;20.83;;;5.30;54.10;;;;;;5064379;28;20235;-66
2021/01/04 12:46:43;;;;;;;22.30;19.97;;;5.30;54.10;;;;;;5066342;28;20224;-65
2021/01/04 12:49:10;;;;;;;20.77;18.77;;;5.30;54.10;;;;;;5063012;28;20221;-65
2021/01/04 12:51:36;;;;;;;19.93;17.93;;;5.30;53.90;;;;;;5062245;28;20582;-65
2021/01/04 12:54:03;;;;;;;19.97;17.87;;;5.30;53.90;;;;;;5062324;28;20243;-65
2021/01/04 12:56:31;;;;;;;21.43;19.23;;;5.30;53.90;;;;;;5058502;28;20271;-64
2021/01/04 12:58:57;;;;;;;20.40;18.37;;;5.30;54.00;;;;;;5062419;28;20209;-64
2021/01/04 13:01:24;;;;;;;21.47;19.47;;;5.30;53.90;;;;;;5062144;28;20209;-65
2021/01/04 13:03:50;;;;;;;22.07;19.87;;;5.30;53.90;;;;;;5065025;28;20205;-67
2021/01/04 13:06:21;;;;;;;20.07;18.07;;;5.20;53.80;;;;;;5064549;28;20639;-65
2021/01/04 13:08:48;;;;;;;19.77;17.87;;;5.10;54.00;;;;;;5063567;28;20578;-65
2021/01/04 13:11:15;;;;;;;20.87;18.67;;;5.10;54.00;;;;;;5061092;28;20205;-66
2021/01/04 13:13:42;;;;;;;22.00;19.77;;;5.10;54.20;;;;;;5063414;28;20204;-67
2021/01/04 13:16:09;;;;;;;21.30;19.20;;;5.10;54.30;;;;;;5065111;28;20221;-65
2021/01/04 13:18:36;;;;;;;24.03;21.60;;;5.10;54.40;;;;;;5066219;28;20266;-64
2021/01/04 13:21:02;;;;;;;23.53;21.03;;;5.10;54.40;;;;;;5063786;28;20223;-65
2021/01/04 13:23:28;;;;;;;20.53;18.53;;;5.10;54.40;;;;;;5064902;28;20410;-65
2021/01/04 13:25:55;;;;;;;17.97;16.10;;;5.10;54.20;;;;;;5062823;28;20217;-65
2021/01/04 13:28:21;;;;;;;23.60;21.20;;;5.10;55.00;;;;;;5065161;28;20263;-65
2021/01/04 13:30:49;;;;;;;21.83;19.53;;;5.10;54.50;;;;;;5064119;28;20219;-66
2021/01/04 13:33:15;;;;;;;23.63;21.23;;;5.10;54.50;;;;;;5065055;28;20342;-65
2021/01/04 13:35:42;;;;;;;20.97;18.77;;;5.10;54.40;;;;;;5065622;28;20233;-64
2021/01/04 13:38:09;;;;;;;21.90;19.50;;;5.10;54.20;;;;;;5064136;28;20201;-67
2021/01/04 13:40:35;;;;;;;19.10;17.30;;;5.10;54.90;;;;;;5062158;28;20297;-67
2021/01/04 13:43:01;;;;;;;19.97;17.93;;;5.00;54.30;;;;;;5063788;28;20204;-62